Time;durP1;ratioP1;P1;durP2;ratioP2;P2;SDS_P1;SDS_P2;PMS_P1;PMS_P2;Temp;Humidity;BMP_temperature;BMP_pressure;BME280_temperature;BME280_humidity;BME280_pressure;Samples;Min_cycle;Max_cycle;Signal;HPM_P1;HPM_P2
2022/04/13 00:01:07;;;;;;;0.00;0.00;;;11.10;99.90;;;;;;5075682;28;20024;-70
2022/04/13 00:03:32;;;;;;;0.00;0.00;;;11.10;99.90;;;;;;5093518;28;20028;-74
2022/04/13 00:05:58;;;;;;;0.00;0.00;;;11.10;99.90;;;;;;5093177;28;20028;-70
2022/04/13 00:08:24;;;;;;;0.15;0.15;;;11.10;99.90;;;;;;5093386;28;20395;-73
2022/04/13 00:10:49;;;;;;;0.52;0.40;;;11.10;99.90;;;;;;5093252;28;20020;-70
2022/04/13 00:13:15;;;;;;;23.88;0.45;;;11.10;99.90;;;;;;5093823;28;20055;-70
2022/04/13 00:15:41;;;;;;;2.20;1.55;;;11.00;99.90;;;;;;5093666;28;20088;-70
2022/04/13 00:18:08;;;;;;;0.40;0.28;;;11.00;99.90;;;;;;5093355;28;20380;-70
2022/04/13 00:20:34;;;;;;;0.00;0.00;;;11.00;99.90;;;;;;5093743;28;20017;-71
2022/04/13 00:23:00;;;;;;;0.40;0.40;;;11.00;99.90;;;;;;5093620;28;20028;-71
2022/04/13 00:25:26;;;;;;;0.25;0.25;;;11.00;99.90;;;;;;5093464;28;20020;-70
2022/04/13 00:27:51;;;;;;;0.13;0.13;;;11.00;99.90;;;;;;5093559;28;20020;-71
2022/04/13 00:30:17;;;;;;;0.43;0.43;;;11.00;99.90;;;;;;5093246;28;20049;-71
2022/04/13 00:32:43;;;;;;;0.40;0.20;;;11.00;99.90;;;;;;5093112;28;20395;-70
2022/04/13 00:35:08;;;;;;;0.08;0.08;;;11.00;99.90;;;;;;5093043;28;20020;-70
2022/04/13 00:37:37;;;;;;;2.95;1.15;;;11.00;99.90;;;;;;5101602;28;20030;-71
2022/04/13 00:40:04;;;;;;;0.55;0.22;;;11.00;99.90;;;;;;5113794;28;20024;-70
2022/04/13 00:42:30;;;;;;;0.08;0.08;;;11.00;99.90;;;;;;5113497;28;20039;-70
2022/04/13 00:44:55;;;;;;;0.13;0.13;;;11.00;99.90;;;;;;5113693;28;20055;-71
2022/04/13 00:47:21;;;;;;;0.00;0.00;;;11.00;99.90;;;;;;5106504;28;20033;-73
2022/04/13 00:49:47;;;;;;;0.57;0.57;;;11.00;99.90;;;;;;5072712;28;20039;-71
2022/04/13 00:52:15;;;;;;;0.30;0.30;;;11.00;99.90;;;;;;5074216;28;20027;-73
2022/04/13 00:54:45;;;;;;;0.35;0.22;;;11.00;99.90;;;;;;5113543;28;20473;-70
2022/04/13 00:57:11;;;;;;;0.22;0.22;;;11.00;99.90;;;;;;5112573;28;20027;-70
2022/04/13 00:59:40;;;;;;;0.17;0.17;;;11.00;99.90;;;;;;5113506;28;20494;-74
2022/04/13 01:02:07;;;;;;;0.70;0.43;;;11.00;99.90;;;;;;5113692;28;20019;-71
2022/04/13 01:04:35;;;;;;;0.20;0.20;;;10.90;99.90;;;;;;5113289;28;20455;-71
2022/04/13 01:07:06;;;;;;;0.17;0.17;;;10.90;99.90;;;;;;5112564;28;20045;-73
2022/04/13 01:09:31;;;;;;;0.00;0.00;;;11.00;99.90;;;;;;5113415;28;20116;-70
2022/04/13 01:11:57;;;;;;;0.10;0.05;;;11.00;99.90;;;;;;5113340;28;20095;-70
2022/04/13 01:14:23;;;;;;;0.25;0.25;;;11.00;99.90;;;;;;5112739;28;20030;-74
2022/04/13 01:16:49;;;;;;;1.10;0.50;;;11.00;99.90;;;;;;5113063;28;20394;-71
2022/04/13 01:19:25;;;;;;;0.00;0.00;;;11.00;99.90;;;;;;5112660;28;20035;-71
2022/04/13 01:21:58;;;;;;;0.00;0.00;;;11.00;99.90;;;;;;5115311;28;20482;-71
2022/04/13 01:24:25;;;;;;;0.00;0.00;;;11.00;99.90;;;;;;5117187;28;20028;-71
2022/04/13 01:26:51;;;;;;;0.10;0.10;;;11.00;99.90;;;;;;5117271;28;20019;-73
2022/04/13 01:29:17;;;;;;;0.10;0.10;;;11.00;99.90;;;;;;5117083;28;20027;-73
2022/04/13 01:31:44;;;;;;;0.10;0.10;;;11.00;99.90;;;;;;5117614;28;20016;-71
2022/04/13 01:34:10;;;;;;;0.17;0.17;;;10.90;99.90;;;;;;5116616;28;20148;-71
2022/04/13 01:36:37;;;;;;;0.32;0.32;;;10.90;99.90;;;;;;5116754;28;20057;-71
2022/04/13 01:39:04;;;;;;;0.10;0.10;;;10.90;99.90;;;;;;5116914;28;20110;-70
2022/04/13 01:41:30;;;;;;;0.00;0.00;;;10.80;99.90;;;;;;5117257;28;20024;-74
2022/04/13 01:43:56;;;;;;;0.10;0.10;;;10.80;99.90;;;;;;5117099;28;20077;-71
2022/04/13 01:46:22;;;;;;;0.00;0.00;;;10.80;99.90;;;;;;5116541;28;20130;-70
2022/04/13 01:48:48;;;;;;;0.22;0.22;;;10.80;99.90;;;;;;5100491;28;20028;-71
2022/04/13 01:51:14;;;;;;;0.00;0.00;;;10.80;99.90;;;;;;5096540;28;20020;-74
2022/04/13 01:53:40;;;;;;;0.10;0.10;;;10.70;99.90;;;;;;5109150;28;20046;-71
2022/04/13 01:56:06;;;;;;;0.00;0.00;;;10.70;99.90;;;;;;5116410;28;20058;-74
2022/04/13 01:58:32;;;;;;;0.45;0.45;;;10.70;99.90;;;;;;5116546;28;20102;-70
2022/04/13 02:00:58;;;;;;;0.63;0.63;;;10.70;99.90;;;;;;5116441;28;20091;-73
2022/04/13 02:03:25;;;;;;;0.20;0.20;;;10.70;99.90;;;;;;5116043;28;20410;-74
2022/04/13 02:05:52;;;;;;;0.10;0.10;;;10.70;99.90;;;;;;5116176;28;20072;-71
2022/04/13 02:08:21;;;;;;;0.05;0.05;;;10.70;99.90;;;;;;5115558;28;20030;-71
2022/04/13 02:10:47;;;;;;;2.55;1.80;;;10.70;99.90;;;;;;5116053;28;20065;-70
2022/04/13 02:13:13;;;;;;;0.00;0.00;;;10.70;99.90;;;;;;5116091;28;20457;-71
2022/04/13 02:15:39;;;;;;;0.00;0.00;;;10.70;99.90;;;;;;5116303;28;20032;-70
2022/04/13 02:18:05;;;;;;;1.27;1.15;;;10.70;99.90;;;;;;5116043;28;20109;-73
2022/04/13 02:20:31;;;;;;;0.88;0.40;;;10.70;99.90;;;;;;5116392;28;20016;-71
2022/04/13 02:22:57;;;;;;;0.35;0.35;;;10.70;99.90;;;;;;5115763;28;20059;-71
2022/04/13 02:25:23;;;;;;;0.10;0.10;;;10.70;99.90;;;;;;5102384;28;20074;-71
2022/04/13 02:27:49;;;;;;;0.00;0.00;;;10.80;99.90;;;;;;5095830;28;20040;-71
2022/04/13 02:30:15;;;;;;;0.00;0.00;;;10.80;99.90;;;;;;5095422;28;20475;-70
2022/04/13 02:32:45;;;;;;;0.00;0.00;;;10.90;99.90;;;;;;5095444;28;20016;-71
2022/04/13 02:35:12;;;;;;;0.15;0.15;;;10.90;99.90;;;;;;5095175;28;20475;-73
2022/04/13 02:37:38;;;;;;;0.17;0.17;;;10.90;99.90;;;;;;5095397;28;20074;-71
2022/04/13 02:40:06;;;;;;;2.60;1.30;;;11.00;99.90;;;;;;5095484;28;20048;-74
2022/04/13 02:42:33;;;;;;;1.17;0.65;;;11.00;99.90;;;;;;5095107;28;20073;-70
2022/04/13 02:44:59;;;;;;;0.28;0.28;;;11.00;99.90;;;;;;5095749;28;20085;-71
2022/04/13 02:47:25;;;;;;;0.10;0.10;;;11.00;99.90;;;;;;5095401;28;20027;-70
2022/04/13 02:49:50;;;;;;;0.10;0.10;;;11.10;99.90;;;;;;5076741;28;20031;-70
2022/04/13 02:52:16;;;;;;;0.88;0.77;;;11.10;99.90;;;;;;5096264;28;20028;-70
2022/04/13 02:54:42;;;;;;;0.47;0.22;;;11.10;99.90;;;;;;5115485;28;20026;-74
2022/04/13 02:57:10;;;;;;;0.00;0.00;;;11.10;99.90;;;;;;5115262;28;20103;-73
2022/04/13 02:59:36;;;;;;;0.03;0.03;;;11.00;99.90;;;;;;5114865;28;20024;-71
2022/04/13 03:02:04;;;;;;;2.13;1.55;;;11.00;99.90;;;;;;5115673;28;20101;-71
2022/04/13 03:04:32;;;;;;;0.00;0.00;;;11.00;99.90;;;;;;5115351;28;20406;-71
2022/04/13 03:06:58;;;;;;;0.35;0.28;;;11.00;99.90;;;;;;5114805;28;20031;-74
2022/04/13 03:09:24;;;;;;;0.55;0.55;;;11.00;99.90;;;;;;5115199;28;20028;-74
2022/04/13 03:11:50;;;;;;;0.17;0.17;;;11.00;99.90;;;;;;5114980;28;20023;-70
2022/04/13 03:14:16;;;;;;;0.22;0.22;;;10.90;99.90;;;;;;5114934;28;20020;-73
2022/04/13 03:16:41;;;;;;;0.10;0.10;;;10.80;99.90;;;;;;5096672;28;20020;-71
2022/04/13 03:19:07;;;;;;;3.08;0.57;;;10.70;99.90;;;;;;5113782;28;20394;-73
2022/04/13 03:21:33;;;;;;;0.10;0.10;;;10.70;99.90;;;;;;5115187;28;20438;-70
2022/04/13 03:23:58;;;;;;;1.33;0.38;;;10.60;99.90;;;;;;5114659;28;20043;-71
2022/04/13 03:26:24;;;;;;;0.32;0.20;;;10.60;99.90;;;;;;5115156;28;20030;-70
2022/04/13 03:28:49;;;;;;;0.90;0.77;;;10.60;99.90;;;;;;5114686;28;20490;-71
2022/04/13 03:31:16;;;;;;;0.52;0.30;;;10.60;99.90;;;;;;5114863;28;20024;-74
2022/04/13 03:33:43;;;;;;;0.00;0.00;;;10.50;99.90;;;;;;5114480;28;20019;-74
2022/04/13 03:36:08;;;;;;;0.28;0.28;;;10.50;99.90;;;;;;5114765;28;20031;-73
2022/04/13 03:38:34;;;;;;;0.05;0.05;;;10.50;99.90;;;;;;5114500;28;20409;-71
2022/04/13 03:41:03;;;;;;;0.00;0.00;;;10.40;99.90;;;;;;5115254;28;20133;-73
2022/04/13 03:43:28;;;;;;;0.05;0.05;;;10.50;99.90;;;;;;5114275;28;20028;-73
2022/04/13 03:45:54;;;;;;;0.50;0.50;;;10.50;99.90;;;;;;5114221;28;20130;-74
2022/04/13 03:48:20;;;;;;;0.40;0.40;;;10.50;99.90;;;;;;5092318;28;20487;-74
2022/04/13 03:50:46;;;;;;;0.00;0.00;;;10.50;99.90;;;;;;5073570;28;20400;-73
2022/04/13 03:53:11;;;;;;;2.30;0.38;;;10.50;99.90;;;;;;5090603;28;20037;-74
2022/04/13 03:55:37;;;;;;;0.20;0.20;;;10.50;99.90;;;;;;5114505;28;20371;-71
2022/04/13 03:58:03;;;;;;;0.35;0.35;;;10.50;99.90;;;;;;5114641;28;20043;-73
2022/04/13 04:00:29;;;;;;;0.63;0.40;;;10.50;99.90;;;;;;5114244;28;20020;-73
2022/04/13 04:02:54;;;;;;;0.55;0.55;;;10.50;99.90;;;;;;5114159;28;20016;-74
2022/04/13 04:05:20;;;;;;;1.23;0.77;;;10.50;99.90;;;;;;5114117;28;20149;-74
2022/04/13 04:07:46;;;;;;;1.02;0.90;;;10.40;99.90;;;;;;5113452;28;20353;-74
2022/04/13 04:10:11;;;;;;;0.55;0.50;;;10.40;99.90;;;;;;5113817;28;20505;-71
2022/04/13 04:12:38;;;;;;;0.45;0.45;;;10.40;99.90;;;;;;5113918;28;20535;-71
2022/04/13 04:15:05;;;;;;;2.80;1.00;;;10.40;99.90;;;;;;5113172;28;20055;-71
2022/04/13 04:17:31;;;;;;;0.30;0.30;;;10.40;99.90;;;;;;5114124;28;20042;-73
2022/04/13 04:19:56;;;;;;;0.05;0.05;;;10.40;99.90;;;;;;5113640;28;20059;-71
2022/04/13 04:22:24;;;;;;;0.60;0.60;;;10.30;99.90;;;;;;5113675;28;20023;-74
2022/04/13 04:24:50;;;;;;;0.10;0.10;;;10.30;99.90;;;;;;5113704;28;20394;-71
2022/04/13 04:27:16;;;;;;;0.00;0.00;;;10.20;99.90;;;;;;5113076;28;20023;-71
2022/04/13 04:29:41;;;;;;;0.63;0.63;;;10.20;99.90;;;;;;5113701;28;20028;-71
2022/04/13 04:32:07;;;;;;;0.10;0.10;;;10.20;99.90;;;;;;5113977;28;20024;-70
2022/04/13 04:34:33;;;;;;;0.13;0.13;;;10.10;99.90;;;;;;5113456;28;20019;-70
2022/04/13 04:36:59;;;;;;;0.05;0.05;;;10.20;99.90;;;;;;5113650;28;20024;-74
2022/04/13 04:39:25;;;;;;;0.40;0.40;;;10.10;99.90;;;;;;5113488;28;20034;-71
2022/04/13 04:41:51;;;;;;;0.28;0.28;;;10.10;99.90;;;;;;5095448;28;20023;-71
2022/04/13 04:44:17;;;;;;;0.00;0.00;;;10.10;99.90;;;;;;5113899;28;20043;-71
2022/04/13 04:46:43;;;;;;;0.10;0.10;;;10.10;99.90;;;;;;5113287;28;20047;-71
2022/04/13 04:49:08;;;;;;;0.05;0.05;;;10.00;99.90;;;;;;5078087;28;20113;-73
2022/04/13 04:51:34;;;;;;;0.15;0.15;;;10.00;99.90;;;;;;5073052;28;20017;-70
2022/04/13 04:54:01;;;;;;;0.52;0.52;;;10.10;99.90;;;;;;5089273;28;20154;-71
2022/04/13 04:56:27;;;;;;;1.65;0.90;;;10.10;99.90;;;;;;5094107;28;20013;-73
2022/04/13 04:58:53;;;;;;;0.75;0.47;;;10.00;99.90;;;;;;5096719;28;20024;-71
2022/04/13 05:01:18;;;;;;;0.03;0.03;;;10.00;99.90;;;;;;5117400;28;20088;-71
2022/04/13 05:03:48;;;;;;;0.63;0.63;;;10.00;99.90;;;;;;5116113;28;20024;-71
2022/04/13 05:06:27;;;;;;;0.00;0.00;;;10.00;99.90;;;;;;5117871;28;20027;-71
2022/04/13 05:08:53;;;;;;;0.52;0.52;;;9.90;99.90;;;;;;5116189;28;20119;-74
2022/04/13 05:11:19;;;;;;;0.00;0.00;;;10.00;99.90;;;;;;5116982;28;20438;-71
2022/04/13 05:13:45;;;;;;;0.25;0.20;;;9.90;99.90;;;;;;5117383;28;20081;-71
2022/04/13 05:16:12;;;;;;;0.22;0.22;;;10.00;99.90;;;;;;5117316;28;20390;-71
2022/04/13 05:18:39;;;;;;;0.00;0.00;;;10.00;99.90;;;;;;5116623;28;20024;-71
2022/04/13 05:21:04;;;;;;;0.57;0.17;;;10.00;99.90;;;;;;5117105;28;20834;-71
2022/04/13 05:23:30;;;;;;;0.35;0.32;;;10.00;99.90;;;;;;5116888;28;20068;-73
2022/04/13 05:25:56;;;;;;;0.40;0.40;;;9.90;99.90;;;;;;5116889;28;20020;-71
2022/04/13 05:28:21;;;;;;;0.00;0.00;;;9.90;99.90;;;;;;5116561;28;20034;-71
2022/04/13 05:30:47;;;;;;;0.15;0.15;;;9.90;99.90;;;;;;5116393;28;20023;-71
2022/04/13 05:33:13;;;;;;;8.20;0.75;;;9.90;99.90;;;;;;5116292;28;20027;-74
2022/04/13 05:35:40;;;;;;;0.15;0.15;;;9.90;99.90;;;;;;5110966;28;20024;-71
2022/04/13 05:38:06;;;;;;;2.38;0.45;;;10.00;99.90;;;;;;5081175;28;20035;-71
2022/04/13 05:40:32;;;;;;;0.20;0.20;;;10.00;99.90;;;;;;5095855;28;20032;-71
2022/04/13 05:42:58;;;;;;;0.20;0.20;;;10.00;99.90;;;;;;5094980;28;20111;-70
2022/04/13 05:45:24;;;;;;;0.10;0.10;;;10.00;99.90;;;;;;5087715;28;20474;-71
2022/04/13 05:47:51;;;;;;;0.13;0.13;;;10.00;99.90;;;;;;5072894;28;20028;-74
2022/04/13 05:50:16;;;;;;;0.80;0.30;;;10.00;99.90;;;;;;5074804;28;20017;-71
2022/04/13 05:52:43;;;;;;;0.05;0.05;;;10.00;99.90;;;;;;5075256;28;20032;-71
2022/04/13 05:55:10;;;;;;;0.00;0.00;;;10.00;99.90;;;;;;5094522;28;20408;-71
2022/04/13 05:57:36;;;;;;;0.00;0.00;;;10.00;99.90;;;;;;5095338;28;20035;-71
2022/04/13 06:00:06;;;;;;;1.42;1.33;;;10.00;99.90;;;;;;5095751;28;20031;-70
2022/04/13 06:02:33;;;;;;;0.28;0.15;;;10.00;99.90;;;;;;5103912;28;20515;-70
2022/04/13 06:04:59;;;;;;;0.00;0.00;;;10.10;99.90;;;;;;5053059;28;20301;-71
2022/04/13 06:07:24;;;;;;;3.70;1.17;;;10.10;99.90;;;;;;5071617;28;21414;-71
2022/04/13 06:09:50;;;;;;;0.15;0.15;;;10.20;99.90;;;;;;5071514;28;20116;-71
2022/04/13 06:12:23;;;;;;;4.68;1.90;;;10.20;99.90;;;;;;5073969;28;20031;-71
2022/04/13 06:14:49;;;;;;;0.10;0.10;;;10.30;99.90;;;;;;5072574;28;20518;-71
2022/04/13 06:17:16;;;;;;;0.38;0.38;;;10.30;99.90;;;;;;5077970;28;20081;-71
2022/04/13 06:19:42;;;;;;;1.20;1.10;;;10.40;99.90;;;;;;5074778;28;20025;-71
2022/04/13 06:22:08;;;;;;;0.00;0.00;;;10.50;99.90;;;;;;5072505;28;20025;-73
2022/04/13 06:24:33;;;;;;;11.98;1.30;;;10.50;99.90;;;;;;5072922;28;20473;-73
2022/04/13 06:26:59;;;;;;;0.17;0.17;;;10.60;99.90;;;;;;5072558;28;20036;-73
2022/04/13 06:29:25;;;;;;;0.38;0.17;;;10.60;99.90;;;;;;5072311;28;20028;-71
2022/04/13 06:31:50;;;;;;;0.80;0.38;;;10.70;99.90;;;;;;5073170;28;20028;-71
2022/04/13 06:34:16;;;;;;;0.60;0.52;;;10.70;99.90;;;;;;5072412;28;20048;-71
2022/04/13 06:36:42;;;;;;;0.57;0.57;;;10.80;99.90;;;;;;5073756;28;20028;-71
2022/04/13 06:39:08;;;;;;;0.60;0.60;;;10.80;99.90;;;;;;5079824;28;20059;-73
2022/04/13 06:41:33;;;;;;;0.32;0.32;;;10.80;99.90;;;;;;5086496;28;20067;-76
2022/04/13 06:43:59;;;;;;;0.43;0.43;;;10.90;99.90;;;;;;5093409;28;20040;-71
2022/04/13 06:46:25;;;;;;;0.22;0.20;;;11.00;99.90;;;;;;5109337;28;20198;-71
2022/04/13 06:48:51;;;;;;;0.10;0.10;;;11.10;99.90;;;;;;5105754;28;20031;-71
2022/04/13 06:51:16;;;;;;;0.00;0.00;;;11.20;99.90;;;;;;5091196;28;20030;-72
2022/04/13 06:53:43;;;;;;;3.60;0.95;;;11.30;99.90;;;;;;5093459;28;20038;-73
2022/04/13 06:56:08;;;;;;;0.00;0.00;;;11.40;99.90;;;;;;5092379;28;20056;-71
2022/04/13 06:58:34;;;;;;;0.52;0.52;;;11.60;99.90;;;;;;5109267;28;20051;-71
2022/04/13 07:01:00;;;;;;;0.65;0.43;;;11.70;99.90;;;;;;5111697;28;20099;-70
2022/04/13 07:03:26;;;;;;;0.45;0.45;;;11.90;99.90;;;;;;5106641;28;20024;-74
2022/04/13 07:05:51;;;;;;;1.00;1.00;;;12.00;99.90;;;;;;5105677;28;20020;-74
2022/04/13 07:08:17;;;;;;;0.40;0.40;;;12.20;99.90;;;;;;5108423;28;20482;-74
2022/04/13 07:10:43;;;;;;;0.20;0.20;;;12.30;99.90;;;;;;5106156;28;20486;-71
2022/04/13 07:13:10;;;;;;;0.32;0.32;;;12.50;99.90;;;;;;5084548;28;20131;-71
2022/04/13 07:15:36;;;;;;;2.25;0.77;;;12.60;99.90;;;;;;5088252;28;20020;-70
2022/04/13 07:18:02;;;;;;;1.55;0.93;;;12.70;99.90;;;;;;5088200;28;20498;-74
2022/04/13 07:20:28;;;;;;;47.00;2.50;;;12.90;99.90;;;;;;5096947;28;20016;-71
2022/04/13 07:22:54;;;;;;;0.68;0.68;;;13.10;99.90;;;;;;5099782;28;20028;-74
2022/04/13 07:25:21;;;;;;;0.75;0.47;;;13.20;99.90;;;;;;5092064;28;20032;-74
2022/04/13 07:27:48;;;;;;;1.65;1.05;;;13.40;99.90;;;;;;5091053;28;20150;-71
2022/04/13 07:30:14;;;;;;;0.50;0.15;;;13.70;99.90;;;;;;5090903;28;20441;-74
2022/04/13 07:32:43;;;;;;;3.95;1.15;;;13.80;99.90;;;;;;5090633;28;20099;-74
2022/04/13 07:35:09;;;;;;;1.83;1.35;;;13.90;99.90;;;;;;5090384;28;20396;-75
2022/04/13 07:37:35;;;;;;;0.45;0.40;;;14.00;99.90;;;;;;5096973;28;20023;-71
2022/04/13 07:40:00;;;;;;;6.82;2.10;;;14.10;99.90;;;;;;5096407;28;20036;-71
2022/04/13 07:42:27;;;;;;;1.55;1.45;;;14.20;99.90;;;;;;5101661;28;20081;-74
2022/04/13 07:44:54;;;;;;;17.48;0.77;;;14.30;99.90;;;;;;5098870;28;20483;-75
2022/04/13 07:47:20;;;;;;;0.60;0.47;;;14.40;99.90;;;;;;5091197;28;20178;-74
2022/04/13 07:49:47;;;;;;;0.20;0.20;;;14.40;99.90;;;;;;5098869;28;20036;-75
2022/04/13 07:52:14;;;;;;;0.60;0.55;;;14.60;99.90;;;;;;5093619;28;20020;-74
2022/04/13 07:54:40;;;;;;;0.38;0.17;;;14.60;99.90;;;;;;5101660;28;20035;-72
2022/04/13 07:57:06;;;;;;;0.20;0.20;;;14.80;99.90;;;;;;5100177;28;20031;-74
2022/04/13 07:59:32;;;;;;;0.73;0.35;;;15.00;99.90;;;;;;5107199;28;20059;-72
2022/04/13 08:01:58;;;;;;;6.90;0.85;;;15.60;99.90;;;;;;5092988;28;20063;-74
2022/04/13 08:04:24;;;;;;;1.25;0.43;;;16.70;99.90;;;;;;5096046;28;20028;-71
2022/04/13 08:06:50;;;;;;;0.68;0.50;;;17.80;99.90;;;;;;5096151;28;20441;-72
2022/04/13 08:09:15;;;;;;;1.40;0.98;;;19.10;99.90;;;;;;5090456;28;20028;-75
2022/04/13 08:11:41;;;;;;;0.52;0.52;;;19.80;99.90;;;;;;5094732;28;20024;-74
2022/04/13 08:14:07;;;;;;;2.78;0.77;;;20.80;99.90;;;;;;5095621;28;20054;-74
2022/04/13 08:16:33;;;;;;;2.90;0.70;;;21.30;99.90;;;;;;5095339;28;20040;-72
2022/04/13 08:18:58;;;;;;;2.20;0.45;;;22.00;99.90;;;;;;5095303;28;20032;-73
2022/04/13 08:21:24;;;;;;;1.58;1.02;;;23.10;99.90;;;;;;5098848;28;20137;-72
2022/04/13 08:23:50;;;;;;;0.60;0.60;;;23.60;99.90;;;;;;5090769;28;20103;-75
2022/04/13 08:26:15;;;;;;;0.40;0.40;;;24.20;99.90;;;;;;5094378;28;21299;-71
2022/04/13 08:28:41;;;;;;;3.13;1.88;;;24.90;99.90;;;;;;5093392;28;20090;-72
2022/04/13 08:31:09;;;;;;;3.88;0.75;;;25.50;99.40;;;;;;5089066;28;20063;-70
2022/04/13 08:33:38;;;;;;;2.72;0.60;;;25.70;99.00;;;;;;5093204;28;20072;-71
2022/04/13 08:36:04;;;;;;;8.43;1.88;;;25.70;98.50;;;;;;5093958;28;20048;-72
2022/04/13 08:38:29;;;;;;;2.50;1.33;;;26.50;98.00;;;;;;5086564;28;20103;-73
2022/04/13 08:40:56;;;;;;;0.70;0.70;;;27.10;97.10;;;;;;5097888;28;20061;-72
2022/04/13 08:43:40;;;;;;;1.77;1.00;;;27.00;96.90;;;;;;5088011;28;20023;-73
2022/04/13 08:46:11;;;;;;;4.50;1.52;;;26.90;96.50;;;;;;5093948;28;20044;-73
2022/04/13 08:48:40;;;;;;;0.63;0.55;;;26.60;96.90;;;;;;5076063;28;20107;-73
2022/04/13 08:51:07;;;;;;;0.70;0.70;;;26.90;96.20;;;;;;5088048;28;20038;-72
2022/04/13 08:53:38;;;;;;;1.80;0.68;;;26.90;95.90;;;;;;5093354;28;20020;-76
2022/04/13 08:56:05;;;;;;;0.40;0.40;;;27.00;95.10;;;;;;5093147;28;20790;-72
2022/04/13 08:58:49;;;;;;;1.90;0.57;;;26.00;95.40;;;;;;5095560;28;20024;-72
2022/04/13 09:01:35;;;;;;;11.07;0.98;;;25.10;96.70;;;;;;5091944;28;20106;-76
2022/04/13 09:04:07;;;;;;;0.60;0.50;;;25.30;96.80;;;;;;5090332;28;20546;-75
2022/04/13 09:06:35;;;;;;;3.72;1.65;;;26.00;96.60;;;;;;5095084;28;20448;-71
2022/04/13 09:09:03;;;;;;;1.70;0.77;;;25.90;96.50;;;;;;5090110;28;20038;-71
2022/04/13 09:11:29;;;;;;;0.40;0.40;;;25.20;97.00;;;;;;5095961;28;20050;-72
2022/04/13 09:13:55;;;;;;;1.27;0.93;;;24.80;97.30;;;;;;5092879;28;20027;-74
2022/04/13 09:16:22;;;;;;;1.65;0.70;;;24.00;99.10;;;;;;5088895;28;20024;-75
2022/04/13 09:18:48;;;;;;;1.23;1.13;;;25.10;97.80;;;;;;5087213;28;20039;-72
2022/04/13 09:21:20;;;;;;;2.60;1.33;;;24.90;97.30;;;;;;5088504;28;20433;-72
2022/04/13 09:23:46;;;;;;;1.98;0.73;;;25.70;97.30;;;;;;5063632;28;20024;-72
2022/04/13 09:26:13;;;;;;;2.38;1.10;;;25.80;97.10;;;;;;5086280;28;20390;-73
2022/04/13 09:28:39;;;;;;;1.30;1.02;;;24.60;97.60;;;;;;5089219;28;20085;-73
2022/04/13 09:31:05;;;;;;;1.58;0.77;;;23.40;99.50;;;;;;5083101;28;20036;-73
2022/04/13 09:33:31;;;;;;;0.50;0.50;;;22.40;99.90;;;;;;5088768;28;20421;-75
2022/04/13 09:35:57;;;;;;;6.22;0.90;;;23.40;99.90;;;;;;5099124;28;20028;-71
2022/04/13 09:38:24;;;;;;;2.10;1.17;;;24.80;98.30;;;;;;5089099;28;20075;-72
2022/04/13 09:40:51;;;;;;;3.03;1.42;;;24.60;97.60;;;;;;5089661;28;20058;-74
2022/04/13 09:43:19;;;;;;;1.30;0.77;;;24.30;97.60;;;;;;5090811;28;20020;-73
2022/04/13 09:45:46;;;;;;;0.40;0.40;;;25.80;97.40;;;;;;5093504;28;20044;-72
2022/04/13 09:48:19;;;;;;;0.70;0.70;;;26.10;96.00;;;;;;5108931;28;20019;-72
2022/04/13 09:50:49;;;;;;;1.05;0.50;;;26.40;95.10;;;;;;5106824;28;20501;-72
2022/04/13 09:53:17;;;;;;;0.47;0.47;;;26.40;95.70;;;;;;5097166;28;20035;-75
2022/04/13 09:55:50;;;;;;;0.85;0.32;;;25.70;96.40;;;;;;5097449;28;20056;-75
2022/04/13 09:58:18;;;;;;;0.25;0.25;;;23.40;98.80;;;;;;5091175;28;20031;-71
2022/04/13 10:00:47;;;;;;;0.20;0.20;;;23.10;99.90;;;;;;5090053;28;20058;-73
2022/04/13 10:03:19;;;;;;;1.00;0.20;;;22.00;99.90;;;;;;5068479;28;20035;-73
2022/04/13 10:05:50;;;;;;;6.18;0.50;;;21.40;99.90;;;;;;5098484;28;20085;-75
2022/04/13 10:08:23;;;;;;;3.13;1.13;;;21.10;99.90;;;;;;5092194;28;20428;-73
2022/04/13 10:10:53;;;;;;;1.35;0.55;;;21.10;99.90;;;;;;5090308;28;20562;-73
2022/04/13 10:13:39;;;;;;;4.38;2.03;;;20.60;99.90;;;;;;5093327;28;20028;-72
2022/04/13 10:16:12;;;;;;;4.03;0.40;;;20.00;99.90;;;;;;5088889;28;20244;-75
2022/04/13 10:18:57;;;;;;;0.75;0.60;;;20.20;99.90;;;;;;5090831;28;20120;-75
2022/04/13 10:21:40;;;;;;;2.17;1.13;;;19.90;99.90;;;;;;5087600;28;20084;-75
2022/04/13 10:24:09;;;;;;;1.70;0.28;;;20.20;99.90;;;;;;5089779;28;20111;-73
2022/04/13 10:26:35;;;;;;;0.20;0.20;;;21.90;99.90;;;;;;5087328;28;20027;-72
2022/04/13 10:29:00;;;;;;;3.53;1.08;;;22.80;99.90;;;;;;5091080;28;20036;-72
2022/04/13 10:31:26;;;;;;;2.80;0.40;;;22.30;99.90;;;;;;5091024;28;20024;-73
2022/04/13 10:33:52;;;;;;;3.38;0.40;;;21.30;99.90;;;;;;5091421;28;20046;-75
2022/04/13 10:36:18;;;;;;;5.32;0.85;;;20.60;99.90;;;;;;5092109;28;20028;-75
2022/04/13 10:38:45;;;;;;;3.00;1.52;;;20.50;99.90;;;;;;5071167;28;20111;-72
2022/04/13 10:41:16;;;;;;;0.65;0.65;;;20.60;99.90;;;;;;5090154;28;20047;-72
2022/04/13 10:43:47;;;;;;;0.25;0.20;;;20.50;99.90;;;;;;5087344;28;20024;-72
2022/04/13 10:46:17;;;;;;;1.48;0.65;;;20.40;99.90;;;;;;5078425;28;20040;-72
2022/04/13 10:48:45;;;;;;;3.20;0.50;;;20.20;99.90;;;;;;5070088;28;20044;-75
2022/04/13 10:51:38;;;;;;;1.90;0.38;;;20.20;99.90;;;;;;5094030;28;20122;-75
2022/04/13 10:54:07;;;;;;;0.32;0.32;;;20.20;99.90;;;;;;5103205;28;20440;-76
2022/04/13 10:56:34;;;;;;;0.25;0.15;;;19.90;99.90;;;;;;5084692;28;20506;-75
2022/04/13 10:59:06;;;;;;;0.30;0.30;;;20.10;99.90;;;;;;5101333;28;20047;-72
2022/04/13 11:01:41;;;;;;;0.55;0.40;;;20.10;99.90;;;;;;5101143;28;20444;-74
2022/04/13 11:04:09;;;;;;;0.35;0.35;;;20.30;99.90;;;;;;5077711;28;20077;-72
2022/04/13 11:06:39;;;;;;;1.20;0.55;;;20.60;99.90;;;;;;5116502;28;20032;-73
2022/04/13 11:09:09;;;;;;;1.30;0.30;;;21.00;99.90;;;;;;5099364;28;20157;-73
2022/04/13 11:11:36;;;;;;;1.73;0.50;;;21.20;99.90;;;;;;5099855;28;20030;-75
2022/04/13 11:14:18;;;;;;;0.68;0.68;;;21.80;99.90;;;;;;5095355;28;20024;-72
2022/04/13 11:16:44;;;;;;;0.68;0.52;;;21.90;99.90;;;;;;5090558;28;20038;-72
2022/04/13 11:19:10;;;;;;;0.30;0.30;;;21.70;99.90;;;;;;5088387;28;20044;-75
2022/04/13 11:22:15;;;;;;;1.95;0.57;;;21.40;99.90;;;;;;5088385;28;20051;-72
2022/04/13 11:24:48;;;;;;;6.88;2.50;;;21.00;99.90;;;;;;5110497;28;20409;-76
2022/04/13 11:27:14;;;;;;;2.60;0.38;;;20.80;99.90;;;;;;5096641;28;20034;-78
2022/04/13 11:30:00;;;;;;;0.28;0.22;;;20.80;99.90;;;;;;5090084;28;20036;-77
2022/04/13 11:32:31;;;;;;;1.65;1.45;;;21.20;99.90;;;;;;5084128;28;20028;-73
2022/04/13 11:34:57;;;;;;;0.35;0.30;;;21.30;99.90;;;;;;5095341;28;20027;-73
2022/04/13 11:37:25;;;;;;;0.85;0.52;;;21.90;99.90;;;;;;5094153;28;20058;-75
2022/04/13 11:39:53;;;;;;;18.83;0.52;;;22.50;99.90;;;;;;5102828;28;20077;-75
2022/04/13 11:42:27;;;;;;;2.15;1.00;;;23.30;99.90;;;;;;5094177;28;20557;-73
2022/04/13 11:45:16;;;;;;;1.55;0.63;;;23.40;99.90;;;;;;5083848;28;20159;-73
2022/04/13 11:47:50;;;;;;;3.10;0.63;;;22.10;99.90;;;;;;5088780;28;20299;-74
2022/04/13 11:50:17;;;;;;;0.20;0.20;;;22.10;99.90;;;;;;5072759;28;20565;-76
2022/04/13 11:53:09;;;;;;;2.17;0.98;;;21.90;99.90;;;;;;5079557;28;20028;-76
2022/04/13 11:55:40;;;;;;;1.02;0.70;;;21.30;99.90;;;;;;5072341;28;20080;-73
2022/04/13 11:58:09;;;;;;;1.05;0.95;;;21.00;99.90;;;;;;5070347;28;20039;-73
2022/04/13 12:00:44;;;;;;;0.22;0.22;;;20.80;99.90;;;;;;5068029;28;20029;-73
2022/04/13 12:03:34;;;;;;;7.07;0.80;;;20.90;99.90;;;;;;5067552;28;20032;-75
2022/04/13 12:06:15;;;;;;;0.20;0.20;;;21.70;99.90;;;;;;5071303;28;20051;-74
2022/04/13 12:08:51;;;;;;;3.88;1.08;;;22.60;99.90;;;;;;5074939;28;20085;-72
2022/04/13 12:11:18;;;;;;;1.63;0.82;;;22.80;99.90;;;;;;5081178;28;20028;-72
2022/04/13 12:13:55;;;;;;;0.45;0.28;;;22.60;99.90;;;;;;5071054;28;20071;-72
2022/04/13 12:16:24;;;;;;;1.73;0.38;;;22.40;99.90;;;;;;5060335;28;20044;-75
2022/04/13 12:18:51;;;;;;;0.10;0.10;;;22.50;99.90;;;;;;5074172;28;20043;-75
2022/04/13 12:21:21;;;;;;;2.92;1.08;;;22.70;99.90;;;;;;5072579;28;20028;-72
2022/04/13 12:23:49;;;;;;;0.63;0.40;;;22.50;99.90;;;;;;5067659;28;20028;-72
2022/04/13 12:26:15;;;;;;;0.90;0.90;;;22.50;99.90;;;;;;5070143;28;20024;-72
2022/04/13 12:28:41;;;;;;;0.65;0.45;;;22.40;99.90;;;;;;5078190;28;20479;-75
2022/04/13 12:31:09;;;;;;;2.72;0.45;;;22.20;99.90;;;;;;5081299;28;20024;-72
2022/04/13 12:33:36;;;;;;;1.25;0.50;;;22.20;99.90;;;;;;5090598;28;20542;-72
2022/04/13 12:36:04;;;;;;;0.28;0.28;;;22.70;99.90;;;;;;5073497;28;20055;-75
2022/04/13 12:38:31;;;;;;;3.20;1.38;;;22.50;99.90;;;;;;5078620;28;20024;-72
2022/04/13 12:41:05;;;;;;;1.48;0.93;;;22.20;99.90;;;;;;5081601;28;20020;-74
2022/04/13 12:43:31;;;;;;;0.65;0.25;;;22.30;99.90;;;;;;5071273;28;20033;-71
2022/04/13 12:45:57;;;;;;;0.32;0.32;;;22.10;99.90;;;;;;5080800;28;20410;-72
2022/04/13 12:48:29;;;;;;;0.28;0.20;;;21.80;99.90;;;;;;5098221;28;20435;-71
2022/04/13 12:50:59;;;;;;;0.20;0.17;;;22.10;99.90;;;;;;5098151;28;20042;-72